Wood Lake, Minnesota
Current Conditions -  °F | °C
As of 1:12 PM on Friday 24 Oct 2014 (Local Time) from KGDB Reporting Station
Clear Clear  
Wind Chill: 66°   Ceiling: Unl
Heat Index: 66°   Visibility: 7mi
Dew Point: 52°   Wind: 5mph
Humidity: 60%   Direction: 260°W
Pressure: 29.87"   Gusts: NA
Location:  44.65°N, 95.54°W
Report Text: KGDB 241812Z AUTO 26004KT 7SM CLR 19/11 A2987 RMK AO2 T01910111
Loading
Personal Weather Stations






























Interactive Weather Map
Tropical Storm Tracking
New forecast layout! Learn more

10-Day Weather Forecast

Advertisements
Track Severe Weather on mobile